METAR Data
IDs: Format: Raw Decoded Include TAF

Data at: 2040 UTC 02 Aug 2021

KWJF 021956Z 22006KT 10SM CLR 38/M03 A3008 RMK AO2 SLP158 T03781028
KWJF 021856Z 29007KT 10SM CLR 37/M02 A3009 RMK AO2 SLP163 T03721017
KWJF 021756Z 23008KT 10SM CLR 37/M02 A3011 RMK AO2 SLP166 T03671017 10372 20183 58010
KWJF 021656Z 23004KT 10SM CLR 35/M01 A3012 RMK AO2 SLP171 T03501006
KWJF 021556Z 00000KT 10SM CLR 31/02 A3013 RMK AO2 SLP179 T03060022
KWJF 021456Z 00000KT 10SM CLR 26/03 A3014 RMK AO2 SLP182 T02610033 51014
KWJF 021356Z 26005KT 10SM CLR 21/03 A3013 RMK AO2 SLP181 T02110028
KWJF 021256Z AUTO 26004KT 10SM CLR 21/02 A3011 RMK AO2 SLP174 T02060017
KWJF 021156Z AUTO 00000KT 10SM CLR 22/02 A3009 RMK AO2 SLP166 T02220022 10283 20194 53002
KWJF 021056Z AUTO 00000KT 10SM CLR 22/03 A3009 RMK AO2 SLP164 T02220028
KWJF 020956Z AUTO 27005KT 10SM CLR 23/03 A3008 RMK AO2 SLP162 T02280033
KWJF 020856Z AUTO 25003KT 10SM CLR 26/04 A3009 RMK AO2 SLP160 T02610039 51001
KWJF 020756Z AUTO 26009KT 10SM CLR 26/04 A3009 RMK AO2 SLP161 T02610039 403890194
KWJF 020656Z AUTO 24008KT 10SM CLR 27/01 A3009 RMK AO2 SLP162 T02720011
KWJF 020556Z AUTO 24012KT 10SM CLR 28/01 A3008 RMK AO2 SLP161 T02830006 10378 20283 51013
KWJF 020456Z AUTO 23010KT 10SM CLR 29/M01 A3008 RMK AO2 SLP161 T02891006
KWJF 020356Z AUTO 26013KT 10SM CLR 29/02 A3007 RMK AO2 SLP156 T02890017
KWJF 020256Z 23011G21KT 10SM CLR 32/01 A3004 RMK AO2 SLP150 T03170006 53002
KWJF 020156Z 23016G25KT 10SM CLR 34/01 A3003 RMK AO2 PK WND 23026/0139 SLP148 T03390006
KWJF 020056Z 23014G24KT 10SM CLR 36/01 A3003 RMK AO2 PK WND 22027/0033 SLP145 T03610011
KWJF 012356Z 24019G24KT 10SM CLR 38/01 A3004 RMK AO2 SLP148 T03780006 10389 20344 56008
KWJF 012256Z 25018G22KT 10SM CLR 38/M01 A3005 RMK AO2 SLP148 T03831011
KWJF 012156Z 24012G21KT 10SM CLR 38/M05 A3006 RMK AO2 SLP151 T03831050
KWJF 012056Z 26013KT 10SM CLR 39/M03 A3007 RMK AO2 SLP152 T03891033 56015
KWJF 011956Z 26010KT 10SM CLR 38/01 A3007 RMK AO2 SLP155 T03830011
KWJF 011856Z 08005KT 10SM CLR 37/03 A3009 RMK AO2 SLP162 T03670033
KWJF 011756Z VRB03KT 10SM CLR 35/04 A3011 RMK AO2 SLP170 T03500044 10350 20194 58003
KWJF 011656Z VRB03KT 10SM CLR 34/04 A3012 RMK AO2 SLP172 T03390039
KWJF 011556Z 28003KT 10SM CLR 31/04 A3013 RMK AO2 SLP176 T03110044
KWJF 011456Z 00000KT 10SM CLR 27/02 A3012 RMK AO2 SLP176 T02720022 53012
KWJF 011356Z 32003KT 10SM CLR 21/00 A3011 RMK AO2 SLP174 T02110000
KWJF 011256Z AUTO 27003KT 10SM CLR 22/M01 A3009 RMK AO2 SLP167 T02221006
KWJF 011156Z AUTO 04004KT 10SM CLR 21/M01 A3008 RMK AO2 SLP164 T02111011 10283 20211 53007
KWJF 011056Z AUTO 27004KT 10SM CLR 24/M01 A3007 RMK AO2 SLP158 T02391006
KWJF 010956Z AUTO 26008KT 10SM CLR 26/M01 A3006 RMK AO2 SLP154 T02561011
KWJF 010856Z AUTO 27009KT 10SM CLR 26/00 A3006 RMK AO2 SLP153 T02610000 58002